sensor_id;sensor_type;location;lat;lon;timestamp;P1;durP1;ratioP1;P2;durP2;ratioP2
3875;SDS011;1953;51.222;6.624;2023-04-01T00:03:55;4.83;;;1.70;;
3875;SDS011;1953;51.222;6.624;2023-04-01T00:10:33;2.00;;;1.50;;
3875;SDS011;1953;51.222;6.624;2023-04-01T00:15:15;3.10;;;1.57;;
3875;SDS011;1953;51.222;6.624;2023-04-01T00:19:58;2.57;;;1.60;;
3875;SDS011;1953;51.222;6.624;2023-04-01T00:24:41;4.10;;;1.27;;
3875;SDS011;1953;51.222;6.624;2023-04-01T00:29:24;1.50;;;1.30;;
3875;SDS011;1953;51.222;6.624;2023-04-01T00:34:09;6.20;;;1.40;;
3875;SDS011;1953;51.222;6.624;2023-04-01T00:38:52;6.13;;;1.67;;
3875;SDS011;1953;51.222;6.624;2023-04-01T00:43:35;2.80;;;1.80;;
3875;SDS011;1953;51.222;6.624;2023-04-01T00:48:19;2.57;;;1.47;;
3875;SDS011;1953;51.222;6.624;2023-04-01T00:53:06;4.30;;;1.50;;
3875;SDS011;1953;51.222;6.624;2023-04-01T00:57:50;4.50;;;1.23;;
3875;SDS011;1953;51.222;6.624;2023-04-01T01:02:34;2.67;;;1.50;;
3875;SDS011;1953;51.222;6.624;2023-04-01T01:07:22;4.20;;;1.67;;
3875;SDS011;1953;51.222;6.624;2023-04-01T01:12:13;2.30;;;1.10;;
3875;SDS011;1953;51.222;6.624;2023-04-01T01:16:58;4.83;;;1.30;;
3875;SDS011;1953;51.222;6.624;2023-04-01T01:22:01;3.47;;;1.23;;
3875;SDS011;1953;51.222;6.624;2023-04-01T01:27:02;3.50;;;1.53;;
3875;SDS011;1953;51.222;6.624;2023-04-01T01:31:49;2.27;;;1.23;;
3875;SDS011;1953;51.222;6.624;2023-04-01T01:36:42;2.10;;;1.47;;
3875;SDS011;1953;51.222;6.624;2023-04-01T01:41:27;1.70;;;1.30;;
3875;SDS011;1953;51.222;6.624;2023-04-01T01:46:13;1.53;;;1.43;;
3875;SDS011;1953;51.222;6.624;2023-04-01T01:50:58;1.60;;;1.50;;
3875;SDS011;1953;51.222;6.624;2023-04-01T01:55:44;2.90;;;1.50;;
3875;SDS011;1953;51.222;6.624;2023-04-01T02:00:28;2.10;;;1.60;;
3875;SDS011;1953;51.222;6.624;2023-04-01T02:05:11;1.67;;;1.47;;
3875;SDS011;1953;51.222;6.624;2023-04-01T02:09:59;3.37;;;1.63;;
3875;SDS011;1953;51.222;6.624;2023-04-01T02:14:45;3.40;;;1.73;;
3875;SDS011;1953;51.222;6.624;2023-04-01T02:19:32;2.90;;;1.43;;
3875;SDS011;1953;51.222;6.624;2023-04-01T02:24:19;3.73;;;1.57;;
3875;SDS011;1953;51.222;6.624;2023-04-01T02:29:06;3.10;;;1.67;;
3875;SDS011;1953;51.222;6.624;2023-04-01T02:33:53;2.07;;;1.40;;
3875;SDS011;1953;51.222;6.624;2023-04-01T02:38:36;2.23;;;1.23;;
3875;SDS011;1953;51.222;6.624;2023-04-01T02:43:20;3.03;;;1.40;;
3875;SDS011;1953;51.222;6.624;2023-04-01T02:47:48;2.17;;;1.80;;
3875;SDS011;1953;51.222;6.624;2023-04-01T02:52:32;2.20;;;1.80;;
3875;SDS011;1953;51.222;6.624;2023-04-01T02:57:15;1.63;;;1.53;;
3875;SDS011;1953;51.222;6.624;2023-04-01T03:01:57;1.93;;;1.10;;
3875;SDS011;1953;51.222;6.624;2023-04-01T03:06:40;3.63;;;1.60;;
3875;SDS011;1953;51.222;6.624;2023-04-01T03:11:24;1.83;;;1.73;;
3875;SDS011;1953;51.222;6.624;2023-04-01T03:16:07;2.30;;;1.30;;
3875;SDS011;1953;51.222;6.624;2023-04-01T03:20:50;1.40;;;1.30;;
3875;SDS011;1953;51.222;6.624;2023-04-01T03:25:32;1.40;;;1.30;;
3875;SDS011;1953;51.222;6.624;2023-04-01T03:30:16;2.60;;;1.30;;
3875;SDS011;1953;51.222;6.624;2023-04-01T03:34:59;1.90;;;1.20;;
3875;SDS011;1953;51.222;6.624;2023-04-01T03:39:42;7.87;;;1.87;;
3875;SDS011;1953;51.222;6.624;2023-04-01T03:44:24;1.60;;;1.50;;
3875;SDS011;1953;51.222;6.624;2023-04-01T03:49:08;1.30;;;1.20;;
3875;SDS011;1953;51.222;6.624;2023-04-01T03:53:52;2.00;;;1.63;;
3875;SDS011;1953;51.222;6.624;2023-04-01T03:58:35;2.13;;;1.97;;
3875;SDS011;1953;51.222;6.624;2023-04-01T04:03:19;1.87;;;1.77;;
3875;SDS011;1953;51.222;6.624;2023-04-01T04:08:03;1.53;;;1.43;;
3875;SDS011;1953;51.222;6.624;2023-04-01T04:12:46;1.47;;;1.37;;
3875;SDS011;1953;51.222;6.624;2023-04-01T04:17:28;1.10;;;1.10;;
3875;SDS011;1953;51.222;6.624;2023-04-01T04:22:11;1.83;;;1.73;;
3875;SDS011;1953;51.222;6.624;2023-04-01T04:26:55;2.93;;;1.80;;
3875;SDS011;1953;51.222;6.624;2023-04-01T04:31:37;1.77;;;1.67;;
3875;SDS011;1953;51.222;6.624;2023-04-01T04:36:20;1.80;;;1.70;;
3875;SDS011;1953;51.222;6.624;2023-04-01T04:41:03;2.00;;;1.77;;
3875;SDS011;1953;51.222;6.624;2023-04-01T04:45:52;4.80;;;3.00;;
3875;SDS011;1953;51.222;6.624;2023-04-01T04:50:34;2.50;;;2.30;;
3875;SDS011;1953;51.222;6.624;2023-04-01T04:55:17;8.50;;;2.80;;
3875;SDS011;1953;51.222;6.624;2023-04-01T05:00:00;3.10;;;2.20;;
3875;SDS011;1953;51.222;6.624;2023-04-01T05:04:44;3.30;;;2.50;;
3875;SDS011;1953;51.222;6.624;2023-04-01T05:09:26;3.47;;;3.17;;
3875;SDS011;1953;51.222;6.624;2023-04-01T05:14:11;2.87;;;2.60;;
3875;SDS011;1953;51.222;6.624;2023-04-01T05:18:54;5.40;;;3.50;;
3875;SDS011;1953;51.222;6.624;2023-04-01T05:23:39;4.33;;;3.27;;
3875;SDS011;1953;51.222;6.624;2023-04-01T05:28:21;3.90;;;3.37;;
3875;SDS011;1953;51.222;6.624;2023-04-01T05:33:04;5.53;;;3.07;;
3875;SDS011;1953;51.222;6.624;2023-04-01T05:37:47;4.57;;;2.90;;
3875;SDS011;1953;51.222;6.624;2023-04-01T05:42:30;4.60;;;3.90;;
3875;SDS011;1953;51.222;6.624;2023-04-01T05:47:13;6.97;;;3.30;;
3875;SDS011;1953;51.222;6.624;2023-04-01T05:51:56;5.57;;;3.63;;
3875;SDS011;1953;51.222;6.624;2023-04-01T05:56:38;5.27;;;3.80;;
3875;SDS011;1953;51.222;6.624;2023-04-01T06:01:22;5.37;;;4.00;;
3875;SDS011;1953;51.222;6.624;2023-04-01T06:06:05;5.07;;;4.07;;
3875;SDS011;1953;51.222;6.624;2023-04-01T06:10:59;5.07;;;3.97;;
3875;SDS011;1953;51.222;6.624;2023-04-01T06:15:51;6.20;;;4.63;;
3875;SDS011;1953;51.222;6.624;2023-04-01T06:20:43;7.33;;;3.60;;
3875;SDS011;1953;51.222;6.624;2023-04-01T06:25:43;5.10;;;3.97;;
3875;SDS011;1953;51.222;6.624;2023-04-01T06:30:35;5.07;;;3.90;;
3875;SDS011;1953;51.222;6.624;2023-04-01T06:35:31;3.70;;;3.30;;
3875;SDS011;1953;51.222;6.624;2023-04-01T06:40:34;3.80;;;3.43;;
3875;SDS011;1953;51.222;6.624;2023-04-01T06:45:34;3.70;;;3.30;;
3875;SDS011;1953;51.222;6.624;2023-04-01T06:50:26;3.93;;;2.90;;
3875;SDS011;1953;51.222;6.624;2023-04-01T06:55:17;3.23;;;2.93;;
3875;SDS011;1953;51.222;6.624;2023-04-01T07:00:11;2.93;;;2.70;;
3875;SDS011;1953;51.222;6.624;2023-04-01T07:04:58;2.03;;;1.93;;
3875;SDS011;1953;51.222;6.624;2023-04-01T07:09:43;3.27;;;2.97;;
3875;SDS011;1953;51.222;6.624;2023-04-01T07:14:33;4.00;;;3.60;;
3875;SDS011;1953;51.222;6.624;2023-04-01T07:19:20;3.60;;;3.30;;
3875;SDS011;1953;51.222;6.624;2023-04-01T07:24:09;2.50;;;2.30;;
3875;SDS011;1953;51.222;6.624;2023-04-01T07:28:56;3.20;;;3.00;;
3875;SDS011;1953;51.222;6.624;2023-04-01T07:33:41;3.13;;;2.83;;
3875;SDS011;1953;51.222;6.624;2023-04-01T07:38:31;3.30;;;3.00;;
3875;SDS011;1953;51.222;6.624;2023-04-01T07:48:26;5.80;;;3.17;;
3875;SDS011;1953;51.222;6.624;2023-04-01T07:53:16;4.33;;;2.90;;
3875;SDS011;1953;51.222;6.624;2023-04-01T07:58:08;4.30;;;3.53;;
3875;SDS011;1953;51.222;6.624;2023-04-01T08:03:03;3.50;;;2.80;;
3875;SDS011;1953;51.222;6.624;2023-04-01T08:08:00;3.43;;;3.13;;
3875;SDS011;1953;51.222;6.624;2023-04-01T08:12:54;3.80;;;3.50;;
3875;SDS011;1953;51.222;6.624;2023-04-01T08:17:51;4.03;;;3.60;;
3875;SDS011;1953;51.222;6.624;2023-04-01T08:22:46;3.40;;;3.10;;
3875;SDS011;1953;51.222;6.624;2023-04-01T08:27:34;3.37;;;3.13;;
3875;SDS011;1953;51.222;6.624;2023-04-01T08:32:20;3.47;;;3.17;;
3875;SDS011;1953;51.222;6.624;2023-04-01T08:37:08;8.10;;;3.83;;
3875;SDS011;1953;51.222;6.624;2023-04-01T08:47:09;6.13;;;5.33;;
3875;SDS011;1953;51.222;6.624;2023-04-01T08:52:20;7.20;;;6.00;;
3875;SDS011;1953;51.222;6.624;2023-04-01T08:57:17;5.37;;;4.33;;
3875;SDS011;1953;51.222;6.624;2023-04-01T09:02:16;8.10;;;6.87;;
3875;SDS011;1953;51.222;6.624;2023-04-01T09:07:21;8.83;;;7.00;;
3875;SDS011;1953;51.222;6.624;2023-04-01T09:12:30;8.83;;;6.27;;
3875;SDS011;1953;51.222;6.624;2023-04-01T09:17:31;6.47;;;5.10;;
3875;SDS011;1953;51.222;6.624;2023-04-01T09:22:50;8.37;;;6.67;;
3875;SDS011;1953;51.222;6.624;2023-04-01T09:27:54;9.33;;;7.20;;
3875;SDS011;1953;51.222;6.624;2023-04-01T09:38:04;11.30;;;8.50;;
3875;SDS011;1953;51.222;6.624;2023-04-01T09:43:04;13.53;;;9.63;;
3875;SDS011;1953;51.222;6.624;2023-04-01T09:48:05;14.60;;;8.20;;
3875;SDS011;1953;51.222;6.624;2023-04-01T09:52:57;13.63;;;9.67;;
3875;SDS011;1953;51.222;6.624;2023-04-01T10:19:10;7.27;;;5.90;;
3875;SDS011;1953;51.222;6.624;2023-04-01T10:29:51;9.00;;;5.97;;
3875;SDS011;1953;51.222;6.624;2023-04-01T10:35:14;7.00;;;6.10;;
3875;SDS011;1953;51.222;6.624;2023-04-01T10:40:20;7.07;;;5.40;;
3875;SDS011;1953;51.222;6.624;2023-04-01T10:50:43;8.90;;;7.40;;
3875;SDS011;1953;51.222;6.624;2023-04-01T10:55:53;8.23;;;6.00;;
3875;SDS011;1953;51.222;6.624;2023-04-01T11:01:14;9.77;;;5.30;;
3875;SDS011;1953;51.222;6.624;2023-04-01T11:12:04;12.80;;;7.97;;
3875;SDS011;1953;51.222;6.624;2023-04-01T11:17:12;12.27;;;8.30;;
3875;SDS011;1953;51.222;6.624;2023-04-01T11:22:29;11.13;;;7.43;;
3875;SDS011;1953;51.222;6.624;2023-04-01T11:27:38;9.30;;;6.23;;
3875;SDS011;1953;51.222;6.624;2023-04-01T11:32:37;13.13;;;6.60;;
3875;SDS011;1953;51.222;6.624;2023-04-01T11:37:33;9.87;;;8.13;;
3875;SDS011;1953;51.222;6.624;2023-04-01T11:42:25;11.87;;;5.97;;
3875;SDS011;1953;51.222;6.624;2023-04-01T11:52:42;12.20;;;8.20;;
3875;SDS011;1953;51.222;6.624;2023-04-01T11:57:43;15.60;;;10.40;;
3875;SDS011;1953;51.222;6.624;2023-04-01T12:02:43;16.20;;;10.37;;
3875;SDS011;1953;51.222;6.624;2023-04-01T12:11:34;15.20;;;11.23;;
3875;SDS011;1953;51.222;6.624;2023-04-01T12:16:26;15.27;;;11.23;;
3875;SDS011;1953;51.222;6.624;2023-04-01T12:21:22;14.27;;;10.40;;
3875;SDS011;1953;51.222;6.624;2023-04-01T12:26:12;9.23;;;6.57;;
3875;SDS011;1953;51.222;6.624;2023-04-01T12:31:15;12.63;;;9.20;;
3875;SDS011;1953;51.222;6.624;2023-04-01T12:36:08;10.97;;;7.53;;
3875;SDS011;1953;51.222;6.624;2023-04-01T12:41:03;14.07;;;11.27;;
3875;SDS011;1953;51.222;6.624;2023-04-01T12:45:53;12.40;;;9.63;;
3875;SDS011;1953;51.222;6.624;2023-04-01T12:51:05;13.83;;;11.10;;
3875;SDS011;1953;51.222;6.624;2023-04-01T12:55:59;12.77;;;9.77;;
3875;SDS011;1953;51.222;6.624;2023-04-01T13:00:56;13.23;;;9.90;;
3875;SDS011;1953;51.222;6.624;2023-04-01T13:05:58;9.23;;;7.27;;
3875;SDS011;1953;51.222;6.624;2023-04-01T13:11:02;8.47;;;7.53;;
3875;SDS011;1953;51.222;6.624;2023-04-01T13:15:51;9.07;;;6.83;;
3875;SDS011;1953;51.222;6.624;2023-04-01T13:20:42;7.50;;;6.13;;
3875;SDS011;1953;51.222;6.624;2023-04-01T13:25:31;8.10;;;7.20;;
3875;SDS011;1953;51.222;6.624;2023-04-01T13:30:23;12.37;;;8.40;;
3875;SDS011;1953;51.222;6.624;2023-04-01T13:35:11;8.43;;;7.53;;
3875;SDS011;1953;51.222;6.624;2023-04-01T13:45:14;7.60;;;6.80;;
3875;SDS011;1953;51.222;6.624;2023-04-01T13:55:23;7.10;;;6.40;;
3875;SDS011;1953;51.222;6.624;2023-04-01T14:00:27;6.30;;;4.40;;
3875;SDS011;1953;51.222;6.624;2023-04-01T14:05:35;7.23;;;6.23;;
3875;SDS011;1953;51.222;6.624;2023-04-01T14:10:31;7.13;;;6.37;;
3875;SDS011;1953;51.222;6.624;2023-04-01T14:15:35;6.17;;;5.27;;
3875;SDS011;1953;51.222;6.624;2023-04-01T14:20:31;5.77;;;5.17;;
3875;SDS011;1953;51.222;6.624;2023-04-01T14:25:25;5.57;;;5.00;;
3875;SDS011;1953;51.222;6.624;2023-04-01T14:30:34;5.20;;;4.77;;
3875;SDS011;1953;51.222;6.624;2023-04-01T14:35:29;5.20;;;4.70;;
3875;SDS011;1953;51.222;6.624;2023-04-01T14:40:27;4.80;;;4.30;;
3875;SDS011;1953;51.222;6.624;2023-04-01T14:45:20;5.30;;;4.80;;
3875;SDS011;1953;51.222;6.624;2023-04-01T14:50:18;6.47;;;3.93;;
3875;SDS011;1953;51.222;6.624;2023-04-01T14:55:10;3.33;;;2.87;;
3875;SDS011;1953;51.222;6.624;2023-04-01T15:00:12;6.03;;;5.10;;
3875;SDS011;1953;51.222;6.624;2023-04-01T15:04:58;4.90;;;4.13;;
3875;SDS011;1953;51.222;6.624;2023-04-01T15:09:51;5.37;;;4.80;;
3875;SDS011;1953;51.222;6.624;2023-04-01T15:14:42;8.00;;;5.80;;
3875;SDS011;1953;51.222;6.624;2023-04-01T15:19:39;7.13;;;6.20;;
3875;SDS011;1953;51.222;6.624;2023-04-01T15:24:35;6.83;;;5.87;;
3875;SDS011;1953;51.222;6.624;2023-04-01T15:29:33;6.00;;;5.23;;
3875;SDS011;1953;51.222;6.624;2023-04-01T15:34:26;7.13;;;6.00;;
3875;SDS011;1953;51.222;6.624;2023-04-01T15:39:16;6.20;;;5.00;;
3875;SDS011;1953;51.222;6.624;2023-04-01T15:44:24;6.30;;;5.03;;
3875;SDS011;1953;51.222;6.624;2023-04-01T15:49:19;7.57;;;6.40;;
3875;SDS011;1953;51.222;6.624;2023-04-01T15:54:17;9.83;;;7.10;;
3875;SDS011;1953;51.222;6.624;2023-04-01T15:59:11;8.07;;;6.60;;
3875;SDS011;1953;51.222;6.624;2023-04-01T16:04:06;8.20;;;7.27;;
3875;SDS011;1953;51.222;6.624;2023-04-01T16:09:12;7.47;;;4.93;;
3875;SDS011;1953;51.222;6.624;2023-04-01T16:14:11;8.30;;;6.10;;
3875;SDS011;1953;51.222;6.624;2023-04-01T16:19:12;8.80;;;7.10;;
3875;SDS011;1953;51.222;6.624;2023-04-01T16:24:15;8.63;;;7.30;;
3875;SDS011;1953;51.222;6.624;2023-04-01T16:29:05;7.80;;;6.57;;
3875;SDS011;1953;51.222;6.624;2023-04-01T16:33:55;9.77;;;6.67;;
3875;SDS011;1953;51.222;6.624;2023-04-01T16:38:46;10.30;;;7.90;;
3875;SDS011;1953;51.222;6.624;2023-04-01T16:43:37;10.87;;;8.70;;
3875;SDS011;1953;51.222;6.624;2023-04-01T16:48:44;8.90;;;7.20;;
3875;SDS011;1953;51.222;6.624;2023-04-01T16:53:36;9.40;;;7.10;;
3875;SDS011;1953;51.222;6.624;2023-04-01T16:58:26;9.13;;;7.30;;
3875;SDS011;1953;51.222;6.624;2023-04-01T17:03:12;5.43;;;4.37;;
3875;SDS011;1953;51.222;6.624;2023-04-01T17:08:00;7.30;;;6.30;;
3875;SDS011;1953;51.222;6.624;2023-04-01T17:12:51;6.70;;;5.57;;
3875;SDS011;1953;51.222;6.624;2023-04-01T17:17:45;7.33;;;6.00;;
3875;SDS011;1953;51.222;6.624;2023-04-01T17:22:37;6.63;;;5.37;;
3875;SDS011;1953;51.222;6.624;2023-04-01T17:27:29;4.50;;;3.90;;
3875;SDS011;1953;51.222;6.624;2023-04-01T17:32:24;5.23;;;4.67;;
3875;SDS011;1953;51.222;6.624;2023-04-01T17:37:30;6.07;;;5.47;;
3875;SDS011;1953;51.222;6.624;2023-04-01T17:42:21;7.30;;;5.43;;
3875;SDS011;1953;51.222;6.624;2023-04-01T17:52:31;5.70;;;5.07;;
3875;SDS011;1953;51.222;6.624;2023-04-01T17:57:30;5.33;;;4.17;;
3875;SDS011;1953;51.222;6.624;2023-04-01T18:02:23;5.73;;;4.87;;
3875;SDS011;1953;51.222;6.624;2023-04-01T18:07:18;7.40;;;6.20;;
3875;SDS011;1953;51.222;6.624;2023-04-01T18:12:34;6.97;;;5.27;;
3875;SDS011;1953;51.222;6.624;2023-04-01T18:17:23;7.00;;;5.40;;
3875;SDS011;1953;51.222;6.624;2023-04-01T18:22:09;6.80;;;5.60;;
3875;SDS011;1953;51.222;6.624;2023-04-01T18:27:03;6.40;;;5.37;;
3875;SDS011;1953;51.222;6.624;2023-04-01T18:31:54;6.83;;;5.23;;
3875;SDS011;1953;51.222;6.624;2023-04-01T18:36:49;5.60;;;4.10;;
3875;SDS011;1953;51.222;6.624;2023-04-01T18:41:40;8.90;;;5.63;;
3875;SDS011;1953;51.222;6.624;2023-04-01T18:46:33;9.83;;;6.50;;
3875;SDS011;1953;51.222;6.624;2023-04-01T18:51:22;11.00;;;8.50;;
3875;SDS011;1953;51.222;6.624;2023-04-01T18:56:15;19.77;;;11.93;;
3875;SDS011;1953;51.222;6.624;2023-04-01T19:01:16;15.63;;;11.00;;
3875;SDS011;1953;51.222;6.624;2023-04-01T19:06:13;14.43;;;10.40;;
3875;SDS011;1953;51.222;6.624;2023-04-01T19:11:06;14.10;;;9.73;;
3875;SDS011;1953;51.222;6.624;2023-04-01T19:15:57;16.77;;;10.33;;
3875;SDS011;1953;51.222;6.624;2023-04-01T19:20:46;20.07;;;13.40;;
3875;SDS011;1953;51.222;6.624;2023-04-01T19:25:39;20.17;;;12.57;;
3875;SDS011;1953;51.222;6.624;2023-04-01T19:30:31;18.07;;;13.10;;
3875;SDS011;1953;51.222;6.624;2023-04-01T19:35:26;17.67;;;12.27;;
3875;SDS011;1953;51.222;6.624;2023-04-01T19:40:21;16.87;;;11.00;;
3875;SDS011;1953;51.222;6.624;2023-04-01T19:45:23;14.17;;;10.07;;
3875;SDS011;1953;51.222;6.624;2023-04-01T19:50:20;15.50;;;11.10;;
3875;SDS011;1953;51.222;6.624;2023-04-01T19:55:19;14.43;;;10.50;;
3875;SDS011;1953;51.222;6.624;2023-04-01T20:00:15;12.83;;;8.83;;
3875;SDS011;1953;51.222;6.624;2023-04-01T20:05:12;14.67;;;9.97;;
3875;SDS011;1953;51.222;6.624;2023-04-01T20:10:06;16.10;;;9.70;;
3875;SDS011;1953;51.222;6.624;2023-04-01T20:14:56;16.13;;;10.20;;
3875;SDS011;1953;51.222;6.624;2023-04-01T20:19:41;17.57;;;10.00;;
3875;SDS011;1953;51.222;6.624;2023-04-01T20:24:30;15.27;;;10.60;;
3875;SDS011;1953;51.222;6.624;2023-04-01T20:29:36;19.60;;;12.80;;
3875;SDS011;1953;51.222;6.624;2023-04-01T20:34:31;17.37;;;11.37;;
3875;SDS011;1953;51.222;6.624;2023-04-01T20:39:41;19.13;;;13.23;;
3875;SDS011;1953;51.222;6.624;2023-04-01T20:44:41;21.30;;;13.23;;
3875;SDS011;1953;51.222;6.624;2023-04-01T20:49:38;21.90;;;13.60;;
3875;SDS011;1953;51.222;6.624;2023-04-01T20:54:30;20.33;;;14.17;;
3875;SDS011;1953;51.222;6.624;2023-04-01T20:59:28;16.00;;;11.00;;
3875;SDS011;1953;51.222;6.624;2023-04-01T21:04:27;24.00;;;14.30;;
3875;SDS011;1953;51.222;6.624;2023-04-01T21:09:18;23.77;;;14.70;;
3875;SDS011;1953;51.222;6.624;2023-04-01T21:19:31;21.93;;;14.33;;
3875;SDS011;1953;51.222;6.624;2023-04-01T21:29:51;12.77;;;10.33;;
3875;SDS011;1953;51.222;6.624;2023-04-01T21:34:42;12.00;;;9.50;;
3875;SDS011;1953;51.222;6.624;2023-04-01T21:39:29;13.77;;;10.87;;
3875;SDS011;1953;51.222;6.624;2023-04-01T21:44:37;22.80;;;14.93;;
3875;SDS011;1953;51.222;6.624;2023-04-01T21:49:33;28.57;;;16.90;;
3875;SDS011;1953;51.222;6.624;2023-04-01T22:00:14;19.43;;;13.70;;
3875;SDS011;1953;51.222;6.624;2023-04-01T22:05:03;16.60;;;11.63;;
3875;SDS011;1953;51.222;6.624;2023-04-01T22:09:52;16.00;;;11.30;;
3875;SDS011;1953;51.222;6.624;2023-04-01T22:14:41;16.47;;;11.30;;
3875;SDS011;1953;51.222;6.624;2023-04-01T22:19:34;18.00;;;10.00;;
3875;SDS011;1953;51.222;6.624;2023-04-01T22:24:25;13.80;;;9.73;;
3875;SDS011;1953;51.222;6.624;2023-04-01T22:29:20;19.90;;;10.40;;
3875;SDS011;1953;51.222;6.624;2023-04-01T22:34:09;15.30;;;9.67;;
3875;SDS011;1953;51.222;6.624;2023-04-01T22:39:09;14.70;;;8.10;;
3875;SDS011;1953;51.222;6.624;2023-04-01T22:44:05;17.70;;;10.70;;
3875;SDS011;1953;51.222;6.624;2023-04-01T22:49:02;17.83;;;12.47;;
3875;SDS011;1953;51.222;6.624;2023-04-01T22:53:57;14.73;;;9.13;;
3875;SDS011;1953;51.222;6.624;2023-04-01T22:58:47;9.00;;;7.50;;
3875;SDS011;1953;51.222;6.624;2023-04-01T23:03:37;9.60;;;6.77;;
3875;SDS011;1953;51.222;6.624;2023-04-01T23:08:32;7.80;;;6.50;;
3875;SDS011;1953;51.222;6.624;2023-04-01T23:13:38;7.80;;;6.93;;
3875;SDS011;1953;51.222;6.624;2023-04-01T23:18:24;13.53;;;10.33;;
3875;SDS011;1953;51.222;6.624;2023-04-01T23:23:17;10.97;;;8.70;;
3875;SDS011;1953;51.222;6.624;2023-04-01T23:28:19;9.67;;;7.70;;
3875;SDS011;1953;51.222;6.624;2023-04-01T23:33:15;9.93;;;7.60;;
3875;SDS011;1953;51.222;6.624;2023-04-01T23:38:03;9.90;;;8.10;;
3875;SDS011;1953;51.222;6.624;2023-04-01T23:42:47;13.80;;;7.70;;
3875;SDS011;1953;51.222;6.624;2023-04-01T23:47:30;10.30;;;8.30;;
3875;SDS011;1953;51.222;6.624;2023-04-01T23:52:17;9.83;;;7.60;;
3875;SDS011;1953;51.222;6.624;2023-04-01T23:57:04;9.30;;;7.37;;
